Time;durP1;ratioP1;P1;durP2;ratioP2;P2;SDS_P1;SDS_P2;PMS_P1;PMS_P2;Temp;Humidity;BMP_temperature;BMP_pressure;BME280_temperature;BME280_humidity;BME280_pressure;Samples;Min_cycle;Max_cycle;Signal;HPM_P1;HPM_P2
2020/12/10 00:01:23;;;;;;;44.37;16.53;;;;;;;-7.32;70.72;101191.46;1787311;80;21175;-67
2020/12/10 00:03:52;;;;;;;43.80;16.97;;;;;;;-7.34;70.69;101193.47;1787500;80;21634;-68
2020/12/10 00:06:20;;;;;;;44.50;16.77;;;;;;;-7.37;70.95;101198.44;1787391;80;21206;-67
2020/12/10 00:08:49;;;;;;;37.23;15.37;;;;;;;-7.41;70.92;101196.10;1787317;80;21199;-67
2020/12/10 00:11:16;;;;;;;36.80;12.97;;;;;;;-7.44;71.08;101189.15;1787370;80;21743;-66
2020/12/10 00:13:44;;;;;;;39.83;14.70;;;;;;;-7.46;71.21;101175.39;1787114;80;21131;-66
2020/12/10 00:16:12;;;;;;;37.50;16.10;;;;;;;-7.46;71.20;101177.08;1781103;80;21166;-67
2020/12/10 00:18:40;;;;;;;38.17;16.00;;;;;;;-7.47;71.39;101169.81;1755992;80;21594;-68
2020/12/10 00:21:08;;;;;;;49.33;17.63;;;;;;;-7.47;71.37;101180.05;1756185;81;21166;-65
2020/12/10 00:23:36;;;;;;;39.77;15.97;;;;;;;-7.48;71.33;101171.88;1756103;81;21460;-67
2020/12/10 00:26:04;;;;;;;36.80;14.37;;;;;;;-7.50;71.34;101159.80;1755754;81;21163;-66
2020/12/10 00:28:32;;;;;;;42.40;16.23;;;;;;;-7.53;71.45;101149.41;1755970;81;21142;-66
2020/12/10 00:31:00;;;;;;;36.83;14.10;;;;;;;-7.55;71.51;101154.44;1756126;81;21242;-65
2020/12/10 00:33:27;;;;;;;33.83;14.70;;;;;;;-7.55;71.55;101157.41;1756814;81;21130;-66
2020/12/10 00:35:58;;;;;;;34.90;14.77;;;;;;;-7.52;71.54;101157.56;1756624;81;21829;-66
2020/12/10 00:38:27;;;;;;;38.13;15.03;;;;;;;-7.53;71.55;101157.09;1756201;81;21171;-66
2020/12/10 00:40:56;;;;;;;34.18;15.65;;;;;;;-7.54;71.56;101149.82;1748644;81;21163;-67
2020/12/10 00:43:23;;;;;;;35.57;15.00;;;;;;;-7.52;71.45;101156.28;1743177;82;21123;-67
2020/12/10 00:45:51;;;;;;;47.17;16.73;;;;;;;-7.54;71.48;101151.10;1743203;82;21042;-68
2020/12/10 00:48:19;;;;;;;36.60;14.50;;;;;;;-7.57;71.59;101145.80;1743160;82;21428;-67
2020/12/10 00:50:48;;;;;;;34.93;13.77;;;;;;;-7.60;71.65;101141.81;1743189;82;21626;-68
2020/12/10 00:53:16;;;;;;;37.97;15.67;;;;;;;-7.60;71.75;101145.66;1742677;82;21595;-68
2020/12/10 00:55:44;;;;;;;47.53;16.93;;;;;;;-7.61;71.70;101151.17;1742473;82;21202;-68
2020/12/10 00:58:11;;;;;;;42.40;16.60;;;;;;;-7.62;71.73;101145.97;1742629;82;22349;-67
2020/12/10 01:00:39;;;;;;;40.60;16.43;;;;;;;-7.62;71.73;101140.45;1742499;82;21379;-67
2020/12/10 01:03:07;;;;;;;40.87;15.83;;;;;;;-7.66;71.79;101139.83;1742533;82;21689;-67
2020/12/10 01:05:35;;;;;;;51.00;17.30;;;;;;;-7.67;71.77;101130.79;1742653;82;21171;-67
2020/12/10 01:08:03;;;;;;;44.37;15.80;;;;;;;-7.68;71.79;101127.77;1742968;82;21726;-66
2020/12/10 01:10:31;;;;;;;47.17;17.90;;;;;;;-7.71;71.79;101127.58;1743028;82;21175;-66
2020/12/10 01:13:03;;;;;;;43.63;16.93;;;;;;;-7.72;71.92;101123.28;1742811;82;21380;-65
2020/12/10 01:15:30;;;;;;;43.67;17.10;;;;;;;-7.73;71.92;101121.50;1742894;82;21851;-67
2020/12/10 01:17:58;;;;;;;49.67;19.37;;;;;;;-7.76;71.94;101121.36;1742845;82;21685;-67
2020/12/10 01:20:26;;;;;;;46.53;18.20;;;;;;;-7.77;71.92;101117.92;1742781;82;21590;-68
2020/12/10 01:22:54;;;;;;;39.30;16.77;;;;;;;-7.79;72.04;101118.64;1742605;82;21611;-68
2020/12/10 01:25:21;;;;;;;32.97;15.33;;;;;;;-7.81;72.13;101118.55;1716178;82;22447;-65
2020/12/10 01:27:50;;;;;;;39.50;14.90;;;;;;;-7.83;72.22;101124.86;1713020;83;21226;-68
2020/12/10 01:30:18;;;;;;;33.80;15.03;;;;;;;-7.84;72.26;101124.39;1713307;83;21175;-68
2020/12/10 01:32:45;;;;;;;37.67;14.43;;;;;;;-7.85;72.32;101132.84;1712841;83;21155;-66
2020/12/10 01:35:13;;;;;;;38.73;13.77;;;;;;;-7.84;72.23;101123.11;1730512;81;21236;-68
2020/12/10 01:37:41;;;;;;;29.13;11.63;;;;;;;-7.85;72.41;101129.41;1723919;83;21354;-68
2020/12/10 01:40:09;;;;;;;41.70;15.40;;;;;;;-7.87;72.34;101123.33;1724389;83;21199;-67
2020/12/10 01:42:37;;;;;;;37.70;15.00;;;;;;;-7.87;72.36;101125.52;1768625;81;21615;-68
2020/12/10 01:45:05;;;;;;;30.53;13.17;;;;;;;-7.86;72.39;101125.11;1768537;80;21159;-68
2020/12/10 01:47:33;;;;;;;34.43;13.17;;;;;;;-7.88;72.35;101125.02;1729466;83;21180;-68
2020/12/10 01:50:01;;;;;;;33.97;13.37;;;;;;;-7.89;72.28;101118.16;1741189;81;22268;-67
2020/12/10 01:52:29;;;;;;;32.80;14.20;;;;;;;-7.87;72.37;101118.22;1729248;83;21176;-69
2020/12/10 01:54:57;;;;;;;33.30;14.37;;;;;;;-7.88;72.37;101116.48;1768567;81;21606;-68
2020/12/10 01:57:28;;;;;;;35.00;13.40;;;;;;;-7.89;72.42;101112.14;1768600;81;21638;-69
2020/12/10 01:59:56;;;;;;;35.60;13.57;;;;;;;-7.90;72.38;101102.73;1741689;81;21203;-67
2020/12/10 02:02:24;;;;;;;32.93;12.60;;;;;;;-7.90;72.49;101108.71;1743570;80;21353;-67
2020/12/10 02:04:52;;;;;;;27.80;11.17;;;;;;;-7.89;72.46;101110.86;1704784;84;21609;-68
2020/12/10 02:07:20;;;;;;;34.73;12.20;;;;;;;-7.95;72.61;101102.48;1687797;85;21600;-67
2020/12/10 02:09:48;;;;;;;34.70;13.33;;;;;;;-7.87;72.69;101110.17;1670161;84;21602;-67
2020/12/10 02:12:17;;;;;;;36.37;12.37;;;;;;;-7.85;72.48;101095.77;1720745;83;21698;-66
2020/12/10 02:14:44;;;;;;;36.40;13.43;;;;;;;-7.83;72.35;101098.00;1685769;85;22319;-67
2020/12/10 02:17:13;;;;;;;28.50;11.30;;;;;;;-7.81;72.35;101108.33;1720560;83;21214;-65
2020/12/10 02:19:41;;;;;;;31.30;13.13;;;;;;;-7.83;72.24;101104.40;1720633;83;21214;-65
2020/12/10 02:22:09;;;;;;;29.47;11.37;;;;;;;-7.78;72.16;101107.60;1721221;83;21211;-66
2020/12/10 02:24:37;;;;;;;34.90;11.67;;;;;;;-7.77;71.93;101101.70;1720743;83;21630;-68
2020/12/10 02:27:04;;;;;;;39.07;15.10;;;;;;;-7.74;71.91;101112.09;1720563;83;21716;-66
2020/12/10 02:29:32;;;;;;;39.37;13.57;;;;;;;-7.75;71.79;101103.92;1685734;85;21678;-68
2020/12/10 02:32:00;;;;;;;40.27;15.67;;;;;;;-7.73;71.74;101108.72;1720512;83;21664;-68
2020/12/10 02:34:28;;;;;;;51.33;16.40;;;;;;;-7.76;71.71;101090.66;1720522;83;22134;-67
2020/12/10 02:36:56;;;;;;;52.60;16.30;;;;;;;-7.77;71.71;101083.80;1720502;83;21630;-68
2020/12/10 02:39:23;;;;;;;43.53;13.60;;;;;;;-7.77;71.84;101085.95;1720455;83;22091;-68
2020/12/10 02:41:53;;;;;;;47.00;16.37;;;;;;;-7.81;71.86;101086.59;1682551;85;21207;-67
2020/12/10 02:44:20;;;;;;;45.27;16.37;;;;;;;-7.82;71.90;101081.88;1718134;83;21654;-68
2020/12/10 02:46:48;;;;;;;45.80;15.53;;;;;;;-7.84;72.05;101088.59;1717968;83;21143;-68
2020/12/10 02:49:16;;;;;;;37.73;13.83;;;;;;;-7.84;71.97;101093.70;1681299;85;21248;-68
2020/12/10 02:51:44;;;;;;;44.77;15.50;;;;;;;-7.83;71.89;101089.05;1718120;83;21630;-65
2020/12/10 02:54:12;;;;;;;37.30;14.60;;;;;;;-7.85;71.91;101083.39;1680957;85;21180;-66
2020/12/10 02:56:40;;;;;;;32.63;11.20;;;;;;;-7.85;71.91;101076.59;1717975;83;21207;-65
2020/12/10 02:59:07;;;;;;;41.87;16.07;;;;;;;-7.86;72.16;101079.95;1717917;83;21881;-65
2020/12/10 03:01:35;;;;;;;39.00;13.77;;;;;;;-7.89;72.23;101077.25;1718023;83;21136;-65
2020/12/10 03:04:04;;;;;;;41.57;16.63;;;;;;;-7.90;72.02;101072.91;1718143;83;22360;-66
2020/12/10 03:06:32;;;;;;;31.93;14.30;;;;;;;-7.87;72.10;101065.43;1718030;83;21183;-66
2020/12/10 03:09:00;;;;;;;32.63;12.50;;;;;;;-7.88;71.94;101066.61;1695622;83;21641;-66
2020/12/10 03:11:28;;;;;;;29.83;12.03;;;;;;;-7.92;72.00;101065.56;1747892;82;21570;-67
2020/12/10 03:13:56;;;;;;;22.70;9.70;;;;;;;-7.90;71.96;101070.36;1747860;82;21143;-68
2020/12/10 03:16:24;;;;;;;28.57;12.43;;;;;;;-7.90;71.91;101066.93;1748024;80;22346;-68
2020/12/10 03:18:52;;;;;;;25.83;10.83;;;;;;;-7.91;72.02;101058.39;1747859;82;21210;-66
2020/12/10 03:21:20;;;;;;;37.47;13.77;;;;;;;-7.89;72.06;101067.02;1748051;82;21159;-66
2020/12/10 03:23:48;;;;;;;25.43;11.03;;;;;;;-7.89;71.92;101067.02;1747867;82;21354;-68
2020/12/10 03:26:16;;;;;;;32.00;12.23;;;;;;;-7.88;71.82;101070.05;1747998;80;21658;-68
2020/12/10 03:28:45;;;;;;;35.73;12.73;;;;;;;-7.88;71.64;101071.33;1748036;82;21215;-66
2020/12/10 03:31:13;;;;;;;27.70;10.77;;;;;;;-7.86;71.68;101072.28;1755823;81;21160;-66
2020/12/10 03:33:41;;;;;;;29.83;11.40;;;;;;;-7.85;71.70;101070.59;1722218;83;21620;-66
2020/12/10 03:36:09;;;;;;;21.23;9.47;;;;;;;-7.87;71.72;101065.43;1763589;81;21611;-67
2020/12/10 03:38:37;;;;;;;31.07;12.20;;;;;;;-7.89;71.62;101072.14;1763553;81;21672;-65
2020/12/10 03:41:06;;;;;;;36.33;13.57;;;;;;;-7.90;71.67;101066.52;1723410;83;22267;-69
2020/12/10 03:43:33;;;;;;;28.27;11.10;;;;;;;-7.90;71.73;101066.93;1729141;83;21172;-65
2020/12/10 03:46:01;;;;;;;35.20;13.07;;;;;;;-7.93;71.98;101061.27;1729142;82;21639;-65
2020/12/10 03:48:30;;;;;;;32.47;12.63;;;;;;;-7.93;71.91;101065.09;1768502;81;21664;-65
2020/12/10 03:50:57;;;;;;;31.10;12.67;;;;;;;-7.93;71.90;101053.59;1729431;83;21144;-67
2020/12/10 03:53:25;;;;;;;32.97;13.50;;;;;;;-7.94;71.82;101052.22;1729302;83;22293;-66
2020/12/10 03:55:54;;;;;;;25.33;10.87;;;;;;;-7.93;71.95;101046.33;1768600;81;21671;-67
2020/12/10 03:58:21;;;;;;;27.73;11.80;;;;;;;-7.96;71.88;101041.91;1768386;81;21203;-66
2020/12/10 04:00:49;;;;;;;25.97;10.50;;;;;;;-7.95;71.98;101039.84;1762334;81;21174;-65
2020/12/10 04:03:17;;;;;;;28.27;10.70;;;;;;;-7.96;72.04;101047.02;1750534;82;21171;-65
2020/12/10 04:05:49;;;;;;;30.33;12.57;;;;;;;-7.96;71.83;101035.92;1750127;81;21398;-66
2020/12/10 04:08:16;;;;;;;29.57;11.63;;;;;;;-7.96;71.89;101030.40;1748618;82;21128;-66
2020/12/10 04:10:44;;;;;;;32.00;12.63;;;;;;;-7.96;71.93;101024.01;1742647;82;22222;-67
2020/12/10 04:13:14;;;;;;;30.40;12.33;;;;;;;-7.95;71.94;101020.67;1742322;82;21571;-67
2020/12/10 04:15:41;;;;;;;34.47;13.60;;;;;;;-7.96;71.90;101021.45;1742267;82;21594;-66
2020/12/10 04:18:09;;;;;;;36.60;13.30;;;;;;;-7.99;72.05;101011.08;1742102;82;23271;-66
2020/12/10 04:20:37;;;;;;;35.27;14.23;;;;;;;-7.99;71.96;101011.08;1742093;82;21227;-67
2020/12/10 04:23:05;;;;;;;30.07;12.77;;;;;;;-7.99;72.13;101017.47;1706672;84;21228;-65
2020/12/10 04:25:32;;;;;;;38.83;14.70;;;;;;;-7.99;72.05;101013.63;1706488;84;21270;-65
2020/12/10 04:28:00;;;;;;;37.00;14.93;;;;;;;-8.03;72.05;101014.27;1742202;82;21156;-65
2020/12/10 04:30:27;;;;;;;39.93;15.27;;;;;;;-8.04;72.13;101016.36;1742205;82;21408;-65
2020/12/10 04:32:56;;;;;;;32.23;13.20;;;;;;;-8.06;72.10;101016.67;1742214;82;21587;-66
2020/12/10 04:35:24;;;;;;;36.40;13.40;;;;;;;-8.07;72.32;101012.38;1706729;84;21147;-68
2020/12/10 04:38:01;;;;;;;37.03;14.83;;;;;;;-8.03;72.29;101004.05;1830291;78;26918;-67
2020/12/10 04:40:29;;;;;;;31.57;13.27;;;;;;;-8.09;72.18;101012.69;1783204;80;21553;-66
2020/12/10 04:43:00;;;;;;;41.30;15.33;;;;;;;-8.11;72.19;101009.17;1783220;80;21195;-67
2020/12/10 04:45:29;;;;;;;33.83;14.25;;;;;;;-8.13;72.33;101012.05;1751649;80;21191;-67
2020/12/10 04:47:57;;;;;;;37.90;14.70;;;;;;;-8.13;72.31;101006.94;1783310;80;21115;-67
2020/12/10 04:50:27;;;;;;;35.27;13.90;;;;;;;-8.12;72.35;101009.95;1726760;80;21562;-66
2020/12/10 04:52:57;;;;;;;39.03;13.75;;;;;;;-8.14;72.35;101008.62;1783420;80;21147;-68
2020/12/10 04:55:26;;;;;;;32.60;12.77;;;;;;;-8.12;72.42;101012.52;1783394;80;21373;-67
2020/12/10 04:57:55;;;;;;;34.80;13.35;;;;;;;-8.13;72.26;101010.36;1783541;80;21630;-66
2020/12/10 05:00:22;;;;;;;33.23;11.40;;;;;;;-8.13;72.42;101010.77;1782157;80;21659;-66
2020/12/10 05:02:51;;;;;;;31.33;13.47;;;;;;;-8.14;72.37;101023.05;1774525;80;21195;-65
2020/12/10 05:05:24;;;;;;;32.10;13.67;;;;;;;-8.18;72.54;101016.92;1774501;80;21120;-67
2020/12/10 05:07:53;;;;;;;33.03;13.03;;;;;;;-8.17;72.49;101015.23;1774665;80;21508;-67
2020/12/10 05:10:21;;;;;;;32.10;13.57;;;;;;;-8.22;72.47;101001.81;1775617;80;21145;-67
2020/12/10 05:12:50;;;;;;;34.77;14.73;;;;;;;-8.20;72.52;101002.30;1775649;80;21166;-67
2020/12/10 05:15:33;;;;;;;31.77;13.33;;;;;;;-8.23;72.59;100998.79;1775674;80;21122;-66
2020/12/10 05:18:12;;;;;;;45.47;14.60;;;;;;;-8.26;72.69;101006.30;1775733;80;21138;-66
2020/12/10 05:20:57;;;;;;;30.77;13.03;;;;;;;-8.31;72.81;101007.72;1775587;80;21418;-66
2020/12/10 05:23:40;;;;;;;27.80;10.77;;;;;;;-8.29;72.88;101015.06;1775596;80;21186;-67
2020/12/10 05:26:10;;;;;;;51.87;17.47;;;;;;;-8.32;73.01;101014.91;1775686;80;21641;-65
2020/12/10 05:28:46;;;;;;;38.77;14.47;;;;;;;-8.34;73.13;101006.69;1775705;80;21194;-65
2020/12/10 05:31:17;;;;;;;50.30;17.00;;;;;;;-8.29;73.06;101022.73;1775868;80;21218;-67
2020/12/10 05:33:59;;;;;;;48.93;15.27;;;;;;;-8.27;73.26;101014.75;1775552;80;21166;-65
2020/12/10 05:39:11;;;;;;;34.27;13.70;;;;;;;-8.16;73.45;101006.78;1752447;81;21693;-68
2020/12/10 05:41:41;;;;;;;42.80;16.27;;;;;;;-8.09;73.21;101022.51;1753303;81;21186;-67
2020/12/10 05:44:15;;;;;;;54.05;19.00;;;;;;;-8.06;72.89;101016.67;1753542;81;21167;-68
2020/12/10 05:46:44;;;;;;;95.33;31.50;;;;;;;-8.04;72.94;101022.75;1753619;81;22261;-67
2020/12/10 05:49:14;;;;;;;56.40;18.87;;;;;;;-7.97;72.82;101029.94;1752886;81;21268;-66
2020/12/10 05:51:47;;;;;;;119.07;35.50;;;;;;;-7.94;72.80;101021.14;1752827;81;21627;-67
2020/12/10 05:54:17;;;;;;;35.57;11.70;;;;;;;-7.93;73.15;101022.91;1751432;81;21176;-68
2020/12/10 05:56:58;;;;;;;44.33;15.37;;;;;;;-7.90;72.92;101039.67;1753557;81;21108;-68
2020/12/10 05:59:30;;;;;;;33.05;13.15;;;;;;;-7.87;72.94;101039.86;1755156;80;21321;-69
2020/12/10 06:02:02;;;;;;;47.23;16.17;;;;;;;-7.84;73.04;101051.52;1732958;81;21177;-67
2020/12/10 06:04:30;;;;;;;64.87;22.77;;;;;;;-7.82;73.10;101046.08;1737855;81;21176;-67
2020/12/10 06:06:59;;;;;;;61.77;21.23;;;;;;;-7.76;73.02;101034.40;1718140;83;21584;-67
2020/12/10 06:09:28;;;;;;;56.30;19.70;;;;;;;-7.74;73.08;101037.92;1674461;84;21209;-67
2020/12/10 06:12:03;;;;;;;69.87;28.77;;;;;;;-7.70;73.20;101036.00;1752223;81;22121;-67
2020/12/10 06:14:31;;;;;;;36.67;14.33;;;;;;;-7.67;73.10;101035.74;1707460;83;21631;-67
2020/12/10 06:17:08;;;;;;;38.87;15.27;;;;;;;-7.61;73.28;101044.14;1736314;82;21659;-67
2020/12/10 06:19:37;;;;;;;32.77;14.70;;;;;;;-7.58;73.12;101034.05;1744472;81;21195;-67
2020/12/10 06:22:30;;;;;;;42.80;18.12;;;;;;;-7.54;73.27;101028.30;1754930;81;21480;-69
2020/12/10 06:24:59;;;;;;;;;;;;;;;-7.48;73.15;101031.14;1757368;81;21207;-68
2020/12/10 06:27:33;;;;;;;39.70;16.80;;;;;;;-7.44;72.98;101021.55;1744958;81;20291;-70
2020/12/10 06:30:21;;;;;;;38.27;13.43;;;;;;;-7.42;72.77;101019.94;1712483;82;21113;-68
2020/12/10 06:32:50;;;;;;;32.73;14.43;;;;;;;-7.41;72.75;101013.14;1695721;83;21456;-69
2020/12/10 06:35:34;;;;;;;34.15;15.25;;;;;;;-7.35;72.64;101021.54;1723744;82;21219;-67
2020/12/10 06:38:06;;;;;;;32.73;14.33;;;;;;;-7.33;72.52;101026.33;1737010;82;21576;-68
2020/12/10 06:40:37;;;;;;;32.73;14.30;;;;;;;-7.31;72.43;101017.05;1725844;83;21155;-67
2020/12/10 06:43:06;;;;;;;44.10;15.90;;;;;;;-7.27;72.66;101015.09;1716781;83;21208;-67
2020/12/10 06:45:41;;;;;;;33.17;12.40;;;;;;;-7.20;72.43;101008.19;1695061;83;21244;-68
2020/12/10 06:48:11;;;;;;;41.47;17.30;;;;;;;-7.19;72.32;101003.56;1733273;82;21150;-68
2020/12/10 06:50:41;;;;;;;38.83;12.93;;;;;;;-7.14;72.17;101003.78;1714125;83;21332;-69
2020/12/10 06:53:18;;;;;;;27.32;10.75;;;;;;;-7.12;72.18;100999.21;1704890;84;21902;-66
2020/12/10 06:56:06;;;;;;;44.17;15.07;;;;;;;-7.09;72.34;101006.16;1735458;81;21199;-68
2020/12/10 06:58:40;;;;;;;42.50;15.73;;;;;;;-7.08;72.16;101002.81;1728792;82;21188;-67
2020/12/10 07:01:36;;;;;;;51.93;18.03;;;;;;;-7.02;72.25;101009.48;1726052;82;21691;-67
2020/12/10 07:07:19;;;;;;;66.10;20.75;;;;;;;-6.89;72.43;100985.34;1718905;83;21104;-67
2020/12/10 07:09:56;;;;;;;44.87;17.43;;;;;;;-6.74;72.06;100989.88;1696815;84;21204;-67
2020/12/10 07:12:29;;;;;;;42.10;15.90;;;;;;;-6.61;71.44;100979.81;1700709;83;21196;-68
2020/12/10 07:15:23;;;;;;;61.97;21.10;;;;;;;-6.45;71.02;100981.39;1722764;83;21313;-68
2020/12/10 07:17:48;;;;;;;41.63;15.05;;;;;;;-6.27;70.92;100995.44;1725265;82;21373;-68
2020/12/10 07:20:17;;;;;;;41.07;15.60;;;;;;;-6.08;70.13;100989.02;1726424;82;21706;-68
2020/12/10 07:22:45;;;;;;;39.77;13.10;;;;;;;-6.01;70.17;100988.89;1725173;82;21203;-67
2020/12/10 07:25:15;;;;;;;38.63;15.63;;;;;;;-5.97;70.12;100999.77;1759591;81;21490;-67
2020/12/10 07:27:44;;;;;;;36.63;15.63;;;;;;;-5.99;69.93;101002.66;1750781;81;21798;-67
2020/12/10 07:30:15;;;;;;;41.07;14.37;;;;;;;-6.03;70.28;100991.38;1738603;81;21612;-68
2020/12/10 07:32:43;;;;;;;;;;;;;;;-6.02;70.54;100989.30;1739776;81;22013;-67
2020/12/10 07:35:11;;;;;;;52.50;18.90;;;;;;;-6.01;70.74;100997.86;1733738;82;20285;-67
2020/12/10 07:37:40;;;;;;;41.33;16.77;;;;;;;-6.05;71.07;100994.69;1733907;82;21172;-67
2020/12/10 07:40:15;;;;;;;44.17;17.50;;;;;;;-6.02;71.02;100993.56;1739172;82;21615;-67
2020/12/10 07:42:44;;;;;;;34.73;13.90;;;;;;;-5.98;71.00;100991.58;1738942;82;21204;-67
2020/12/10 07:45:18;;;;;;;46.73;18.90;;;;;;;-5.95;70.80;100998.14;1740100;82;21156;-67
2020/12/10 07:48:00;;;;;;;39.13;14.83;;;;;;;-5.89;70.78;100999.64;1739634;82;22163;-67
2020/12/10 07:50:30;;;;;;;38.40;15.07;;;;;;;-5.82;70.65;100997.84;1739314;82;21175;-68
2020/12/10 07:53:03;;;;;;;49.70;18.17;;;;;;;-5.85;70.55;100997.68;1739363;82;21115;-67
2020/12/10 07:55:29;;;;;;;41.20;16.30;;;;;;;-5.88;70.77;100997.97;1739072;82;21456;-66
2020/12/10 07:58:12;;;;;;;42.07;18.33;;;;;;;-5.91;70.89;100988.05;1739150;82;21204;-68
2020/12/10 08:00:40;;;;;;;49.60;17.23;;;;;;;-5.93;71.31;100992.64;1736305;82;21164;-68
2020/12/10 08:03:38;;;;;;;45.83;19.10;;;;;;;-5.89;71.22;100990.66;1691167;84;21236;-67
2020/12/10 08:06:10;;;;;;;35.80;14.57;;;;;;;-5.87;71.33;100985.19;1691270;83;21226;-67
2020/12/10 08:08:43;;;;;;;53.33;18.57;;;;;;;-5.90;71.25;100982.50;1687933;84;21382;-66
2020/12/10 08:11:19;;;;;;;42.73;17.83;;;;;;;-5.87;71.45;100985.19;1681804;85;21211;-67
2020/12/10 08:14:09;;;;;;;40.43;16.57;;;;;;;-5.85;71.42;100981.00;1681485;85;21219;-67
2020/12/10 08:16:45;;;;;;;45.13;19.07;;;;;;;-5.80;71.70;100978.64;1703866;83;21269;-67
2020/12/10 08:19:20;;;;;;;47.27;17.83;;;;;;;-5.78;71.62;100968.91;1710186;83;21162;-67
2020/12/10 08:21:50;;;;;;;41.17;16.50;;;;;;;-5.74;71.92;100957.09;1710188;83;22056;-67
2020/12/10 08:24:40;;;;;;;36.77;12.47;;;;;;;-5.71;71.52;100950.80;1709804;83;21203;-67
2020/12/10 08:27:13;;;;;;;37.40;17.20;;;;;;;-5.71;71.74;100945.67;1709221;83;21174;-67
2020/12/10 08:32:54;;;;;;;36.97;16.30;;;;;;;-5.63;72.04;100924.20;1888074;76;22582;-67
2020/12/10 08:35:21;;;;;;;40.67;14.70;;;;;;;-5.65;71.99;100920.69;1841882;77;21115;-67
2020/12/10 08:37:52;;;;;;;43.10;16.23;;;;;;;-5.60;71.97;100928.16;1798189;78;21318;-67
2020/12/10 08:40:27;;;;;;;44.57;16.60;;;;;;;-5.58;71.94;100931.26;1810521;78;21143;-67
2020/12/10 08:42:55;;;;;;;38.97;15.23;;;;;;;-5.53;72.15;100933.59;1825415;78;21162;-67
2020/12/10 08:45:31;;;;;;;44.20;15.53;;;;;;;-5.53;71.96;100923.74;1793703;78;21201;-67
2020/12/10 08:48:02;;;;;;;40.13;17.17;;;;;;;-5.50;72.15;100915.77;1825469;78;21174;-67
2020/12/10 08:50:30;;;;;;;42.27;17.43;;;;;;;-5.47;72.04;100903.47;1825267;78;21383;-67
2020/12/10 08:53:09;;;;;;;56.13;20.23;;;;;;;-5.46;72.09;100900.08;1825298;78;21250;-67
2020/12/10 08:55:50;;;;;;;33.97;14.40;;;;;;;-5.42;72.32;100899.39;1825283;78;21138;-67
2020/12/10 08:58:23;;;;;;;47.77;16.47;;;;;;;-5.39;72.43;100911.05;1825473;78;21154;-66
2020/12/10 09:00:54;;;;;;;45.17;17.30;;;;;;;-5.34;72.40;100922.38;1825538;78;21142;-67
2020/12/10 09:03:24;;;;;;;38.50;17.02;;;;;;;-5.19;72.50;100911.84;1825688;78;23472;-68
2020/12/10 09:05:53;;;;;;;50.23;19.00;;;;;;;-5.19;72.50;100911.84;1825404;78;21150;-67
2020/12/10 09:08:21;;;;;;;37.00;14.93;;;;;;;-5.17;72.36;100910.22;1817765;78;21661;-67
2020/12/10 09:10:49;;;;;;;53.53;19.27;;;;;;;-5.12;72.25;100906.55;1792877;80;21638;-67
2020/12/10 09:13:18;;;;;;;40.50;16.27;;;;;;;-5.05;72.02;100909.81;1793103;79;21594;-67
2020/12/10 09:15:46;;;;;;;39.67;18.03;;;;;;;-5.03;71.88;100897.91;1800090;78;21425;-68
2020/12/10 09:18:14;;;;;;;47.20;18.13;;;;;;;-4.98;71.91;100901.52;1795164;78;21693;-67
2020/12/10 09:20:45;;;;;;;64.58;22.55;;;;;;;-4.95;71.84;100895.62;1825331;77;28987;-67
2020/12/10 09:23:17;;;;;;;44.50;17.43;;;;;;;-4.99;71.94;100900.16;1799895;78;21652;-67
2020/12/10 09:25:46;;;;;;;36.33;15.20;;;;;;;-5.00;72.10;100898.02;1814757;78;22130;-67
2020/12/10 09:28:16;;;;;;;41.87;16.47;;;;;;;-4.96;72.17;100892.18;1808999;78;21211;-68
2020/12/10 09:30:44;;;;;;;65.87;24.73;;;;;;;-5.00;72.32;100903.15;1825469;77;22220;-67
2020/12/10 09:33:12;;;;;;;43.80;18.43;;;;;;;-5.04;72.65;100885.86;1827841;78;21180;-68
2020/12/10 09:35:39;;;;;;;51.00;18.23;;;;;;;-4.99;73.10;100887.32;1827667;78;21631;-67
2020/12/10 09:38:09;;;;;;;43.80;17.73;;;;;;;-4.92;72.95;100878.64;1792128;77;22107;-66
2020/12/10 09:40:36;;;;;;;45.20;16.60;;;;;;;-4.91;72.69;100877.80;1716418;83;21242;-68
2020/12/10 09:43:04;;;;;;;42.03;15.47;;;;;;;-4.88;72.73;100868.95;1719740;83;21165;-66
2020/12/10 09:45:33;;;;;;;46.07;17.73;;;;;;;-4.88;72.61;100871.91;1729969;81;21149;-66
2020/12/10 09:48:01;;;;;;;57.23;16.77;;;;;;;-4.87;72.84;100868.53;1720562;81;21705;-66
2020/12/10 09:50:33;;;;;;;55.13;23.70;;;;;;;-4.83;72.97;100864.36;1732117;82;21189;-65
2020/12/10 09:53:15;;;;;;;47.13;18.97;;;;;;;-4.80;72.95;100863.22;1748846;80;21731;-67
2020/12/10 09:58:22;;;;;;;53.87;21.50;;;;;;;-4.69;73.00;100876.05;1826314;77;22165;-67
2020/12/10 10:00:50;;;;;;;50.70;18.57;;;;;;;-4.72;73.20;100879.77;1786837;78;21594;-65
2020/12/10 10:03:20;;;;;;;53.60;19.20;;;;;;;-4.70;73.26;100889.70;1788116;78;21192;-68
2020/12/10 10:05:50;;;;;;;57.70;22.73;;;;;;;-4.72;73.18;100893.91;1785048;80;21194;-67
2020/12/10 10:08:21;;;;;;;56.93;22.53;;;;;;;-4.72;73.56;100899.05;1785620;80;21127;-67
2020/12/10 10:10:50;;;;;;;58.37;22.07;;;;;;;-4.72;73.79;100909.33;1747953;82;21171;-67
2020/12/10 10:13:18;;;;;;;74.83;26.60;;;;;;;-4.74;73.96;100907.11;1785812;80;21114;-67
2020/12/10 10:15:49;;;;;;;57.40;20.97;;;;;;;-4.75;74.28;100894.67;1800070;78;21308;-66
2020/12/10 10:18:16;;;;;;;56.47;21.97;;;;;;;-4.71;74.25;100878.55;1785810;80;21190;-66
2020/12/10 10:20:45;;;;;;;49.50;20.43;;;;;;;-4.69;74.14;100868.34;1786068;80;21621;-65
2020/12/10 10:23:15;;;;;;;52.67;18.73;;;;;;;-4.65;74.32;100869.80;1786230;80;21142;-65
2020/12/10 10:25:43;;;;;;;46.63;20.07;;;;;;;-4.66;74.23;100873.16;1786064;80;22145;-66
2020/12/10 10:28:11;;;;;;;54.80;18.07;;;;;;;-4.68;74.42;100860.66;1805781;78;22216;-67
2020/12/10 10:30:39;;;;;;;71.33;21.07;;;;;;;-4.72;74.82;100870.78;1811249;78;21199;-68
2020/12/10 10:33:07;;;;;;;103.93;29.80;;;;;;;-4.71;74.87;100875.12;1807931;78;21253;-67
2020/12/10 10:35:37;;;;;;;49.83;21.10;;;;;;;-4.69;74.73;100877.34;1817218;78;21163;-68
2020/12/10 10:38:04;;;;;;;60.73;19.53;;;;;;;-4.71;75.09;100872.55;1804547;78;21673;-67
2020/12/10 10:40:32;;;;;;;57.60;22.67;;;;;;;-4.69;75.18;100869.21;1809233;78;21192;-67
2020/12/10 10:43:00;;;;;;;55.30;20.47;;;;;;;-4.66;75.20;100868.44;1816143;78;21193;-67
2020/12/10 10:45:28;;;;;;;60.33;23.20;;;;;;;-4.64;75.30;100859.09;1799410;78;22138;-68
2020/12/10 10:47:56;;;;;;;51.00;19.67;;;;;;;-4.62;75.30;100859.12;1785901;80;21601;-67
2020/12/10 10:50:24;;;;;;;59.90;23.30;;;;;;;-4.60;75.34;100847.21;1817023;78;21134;-67
2020/12/10 10:52:54;;;;;;;71.67;28.17;;;;;;;-4.60;75.55;100848.11;1818408;78;21324;-68
2020/12/10 10:55:22;;;;;;;70.60;29.17;;;;;;;-4.60;75.78;100842.97;1818136;78;21404;-69
2020/12/10 10:57:50;;;;;;;107.73;39.37;;;;;;;-4.57;75.70;100844.35;1820683;78;21075;-67
2020/12/10 11:00:18;;;;;;;141.97;58.60;;;;;;;-4.53;75.83;100838.51;1821574;78;21131;-67
2020/12/10 11:02:49;;;;;;;65.87;27.63;;;;;;;-4.51;75.74;100848.44;1753674;81;22092;-67
2020/12/10 11:05:17;;;;;;;;;;;;;;;-4.50;75.92;100844.16;1759714;81;21381;-66
2020/12/10 11:07:44;;;;;;;69.67;29.43;;;;;;;-4.49;75.97;100848.47;1749053;81;20227;-66
2020/12/10 11:10:22;;;;;;;56.03;23.67;;;;;;;-4.53;76.24;100835.94;1744876;80;21162;-68
2020/12/10 11:12:47;;;;;;;61.17;25.20;;;;;;;-4.54;76.44;100857.30;1762858;80;21350;-69
2020/12/10 11:15:15;;;;;;;64.60;20.80;;;;;;;-4.51;76.85;100852.30;1774672;80;21159;-67
2020/12/10 11:17:44;;;;;;;71.43;26.47;;;;;;;-4.50;76.89;100851.45;1774647;80;21399;-67
2020/12/10 11:20:13;;;;;;;62.17;27.13;;;;;;;-4.51;77.11;100848.44;1774256;80;21214;-67
2020/12/10 11:22:41;;;;;;;66.30;23.57;;;;;;;-4.50;76.95;100847.60;1774172;79;21603;-67
2020/12/10 11:25:16;;;;;;;59.37;26.40;;;;;;;-4.47;76.97;100852.84;1774197;80;21136;-67
2020/12/10 11:27:47;;;;;;;;;;;;;;;-4.45;76.97;100851.63;1760983;81;21229;-67
2020/12/10 11:30:15;;;;;;;73.47;26.57;;;;;;;-4.46;77.09;100846.03;1750196;81;21204;-67
2020/12/10 11:32:42;;;;;;;75.77;28.70;;;;;;;-4.47;77.18;100845.12;1749804;82;21630;-66
2020/12/10 11:35:11;;;;;;;63.93;26.37;;;;;;;-4.44;77.23;100833.69;1759321;81;21182;-67